Time;durP1;ratioP1;P1;durP2;ratioP2;P2;SDS_P1;SDS_P2;PMS_P1;PMS_P2;Temp;Humidity;BMP_temperature;BMP_pressure;BME280_temperature;BME280_humidity;BME280_pressure;Samples;Min_cycle;Max_cycle;Signal;HPM_P1;HPM_P2
2024/02/19 00:02:50;;;;;;;71.40;40.70;;;;;;;;;;137712;1272;22056;-80
2024/02/19 00:05:52;;;;;;;51.50;33.30;;;;;;;;;;137679;1267;22077;-81
2024/02/19 00:08:55;;;;;;;41.90;28.00;;;;;;;;;;137718;1272;22081;-81
2024/02/19 00:11:57;;;;;;;39.90;23.90;;;;;;;;;;137704;1272;22083;-81
2024/02/19 00:15:00;;;;;;;32.70;21.40;;;;;;;;;;137708;1272;22101;-81
2024/02/19 00:18:02;;;;;;;33.80;20.60;;;;;;;;;;137795;1272;22083;-81
2024/02/19 00:21:05;;;;;;;30.80;19.40;;;;;;;;;;137762;1272;22321;-80
2024/02/19 00:24:07;;;;;;;35.40;21.90;;;;;;;;;;137794;1258;22165;-80
2024/02/19 00:27:10;;;;;;;32.70;20.30;;;;;;;;;;137751;1272;22084;-79
2024/02/19 00:30:13;;;;;;;67.20;23.40;;;;;;;;;;137792;1272;22120;-81
2024/02/19 00:33:16;;;;;;;32.20;21.40;;;;;;;;;;137765;1272;22051;-80
2024/02/19 00:36:19;;;;;;;36.60;22.10;;;;;;;;;;137786;1272;22687;-80
2024/02/19 00:39:22;;;;;;;38.90;22.40;;;;;;;;;;137815;1272;22594;-79
2024/02/19 00:42:24;;;;;;;35.80;22.50;;;;;;;;;;137757;1272;22428;-80
2024/02/19 00:45:27;;;;;;;34.00;21.00;;;;;;;;;;137759;1272;22121;-80
2024/02/19 00:48:30;;;;;;;35.40;21.80;;;;;;;;;;137762;1272;22165;-80
2024/02/19 00:51:32;;;;;;;37.60;21.60;;;;;;;;;;137749;1272;22058;-82
2024/02/19 00:54:38;;;;;;;37.70;22.20;;;;;;;;;;137738;1272;22279;-80
2024/02/19 00:57:40;;;;;;;40.10;22.60;;;;;;;;;;137769;1272;22069;-80
2024/02/19 01:00:43;;;;;;;45.80;22.80;;;;;;;;;;137789;1272;22228;-79
2024/02/19 01:03:45;;;;;;;35.30;21.70;;;;;;;;;;137749;1270;22686;-80
2024/02/19 01:06:48;;;;;;;37.80;21.80;;;;;;;;;;137790;1272;22059;-80
2024/02/19 01:09:50;;;;;;;35.30;20.80;;;;;;;;;;137779;1257;22062;-79
2024/02/19 01:12:53;;;;;;;38.00;20.50;;;;;;;;;;137801;1272;22142;-79
2024/02/19 01:15:55;;;;;;;31.50;20.40;;;;;;;;;;137783;1272;22077;-79
2024/02/19 01:18:57;;;;;;;31.20;20.90;;;;;;;;;;137791;1272;22071;-79
2024/02/19 01:22:00;;;;;;;32.70;20.10;;;;;;;;;;137766;1272;22066;-79
2024/02/19 01:25:02;;;;;;;29.50;19.20;;;;;;;;;;137788;1272;22255;-79
2024/02/19 01:28:06;;;;;;;32.80;20.00;;;;;;;;;;137701;1272;22115;-79
2024/02/19 01:31:08;;;;;;;29.20;19.60;;;;;;;;;;137762;1272;22051;-79
2024/02/19 01:34:14;;;;;;;29.80;20.10;;;;;;;;;;137751;1272;22081;-80
2024/02/19 01:37:16;;;;;;;35.90;20.40;;;;;;;;;;137778;1272;22136;-78
2024/02/19 01:40:19;;;;;;;31.20;20.30;;;;;;;;;;137802;1272;22235;-79
2024/02/19 01:43:22;;;;;;;34.20;20.40;;;;;;;;;;137790;1272;22065;-78
2024/02/19 01:46:24;;;;;;;29.90;18.60;;;;;;;;;;137794;1272;22217;-79
2024/02/19 01:49:27;;;;;;;34.90;19.70;;;;;;;;;;137827;1272;23080;-79
2024/02/19 01:52:30;;;;;;;36.20;21.40;;;;;;;;;;137820;1272;22195;-79
2024/02/19 01:55:32;;;;;;;34.40;20.60;;;;;;;;;;137795;1272;22054;-79
2024/02/19 01:58:35;;;;;;;34.10;21.00;;;;;;;;;;137810;1272;22088;-79
2024/02/19 02:01:38;;;;;;;27.90;20.40;;;;;;;;;;137796;1272;22285;-79
2024/02/19 02:04:40;;;;;;;32.00;20.30;;;;;;;;;;137835;1267;22108;-79
2024/02/19 02:07:43;;;;;;;29.30;18.70;;;;;;;;;;137795;1272;22107;-79
2024/02/19 02:10:45;;;;;;;35.60;18.90;;;;;;;;;;137840;1272;22170;-79
2024/02/19 02:13:48;;;;;;;34.30;20.00;;;;;;;;;;137778;1272;22199;-77
2024/02/19 02:16:50;;;;;;;31.70;19.70;;;;;;;;;;137824;1272;22136;-79
2024/02/19 02:19:53;;;;;;;28.50;19.40;;;;;;;;;;137861;1272;22222;-80
2024/02/19 02:22:56;;;;;;;29.70;18.80;;;;;;;;;;137818;1272;22115;-79
2024/02/19 02:25:58;;;;;;;28.10;19.30;;;;;;;;;;137818;1272;22508;-79
2024/02/19 02:29:01;;;;;;;36.70;22.30;;;;;;;;;;137824;1272;22041;-79
2024/02/19 02:32:03;;;;;;;31.80;20.60;;;;;;;;;;137844;1272;22046;-79
2024/02/19 02:35:06;;;;;;;31.30;19.60;;;;;;;;;;137842;1272;22229;-79
2024/02/19 02:38:08;;;;;;;32.90;20.40;;;;;;;;;;137865;1272;22106;-78
2024/02/19 02:41:11;;;;;;;37.70;21.20;;;;;;;;;;137824;1272;22209;-78
2024/02/19 02:44:14;;;;;;;29.20;20.20;;;;;;;;;;137832;1272;22210;-78
2024/02/19 02:47:17;;;;;;;29.20;18.90;;;;;;;;;;137793;1272;22056;-78
2024/02/19 02:50:19;;;;;;;29.20;19.90;;;;;;;;;;137826;1272;22232;-78
2024/02/19 02:53:23;;;;;;;31.40;19.30;;;;;;;;;;137775;1272;22068;-78
2024/02/19 02:56:26;;;;;;;30.60;19.50;;;;;;;;;;137786;1272;22434;-79
2024/02/19 02:59:28;;;;;;;32.50;20.00;;;;;;;;;;137786;1272;22253;-79
2024/02/19 03:02:32;;;;;;;34.80;19.60;;;;;;;;;;137812;1272;22171;-79
2024/02/19 03:05:35;;;;;;;32.60;19.40;;;;;;;;;;137797;1272;22096;-79
2024/02/19 03:08:37;;;;;;;31.20;19.40;;;;;;;;;;137826;1272;22169;-79
2024/02/19 03:11:40;;;;;;;30.30;20.30;;;;;;;;;;137790;1272;22312;-78
2024/02/19 03:14:43;;;;;;;30.90;21.20;;;;;;;;;;137771;1272;22249;-79
2024/02/19 03:17:45;;;;;;;33.50;21.40;;;;;;;;;;137836;1272;22168;-79
2024/02/19 03:20:48;;;;;;;83.40;23.40;;;;;;;;;;137805;1272;22182;-80
2024/02/19 03:23:51;;;;;;;38.80;21.60;;;;;;;;;;137793;1272;22675;-79
2024/02/19 03:26:55;;;;;;;38.30;21.80;;;;;;;;;;137828;1272;22090;-79
2024/02/19 03:29:57;;;;;;;39.50;22.50;;;;;;;;;;137781;1272;22121;-80
2024/02/19 03:33:00;;;;;;;30.10;20.80;;;;;;;;;;137778;1272;22245;-79
2024/02/19 03:36:03;;;;;;;36.00;21.60;;;;;;;;;;137753;1272;22074;-79
2024/02/19 03:39:05;;;;;;;29.40;14.90;;;;;;;;;;137805;1272;22101;-83
2024/02/19 03:42:07;;;;;;;48.70;17.50;;;;;;;;;;137748;1272;22198;-79
2024/02/19 03:45:10;;;;;;;63.00;22.00;;;;;;;;;;137792;1272;22600;-79
2024/02/19 03:48:12;;;;;;;28.10;18.80;;;;;;;;;;137772;1272;22219;-80
2024/02/19 03:51:15;;;;;;;39.40;20.00;;;;;;;;;;137751;1272;22139;-80
2024/02/19 03:54:17;;;;;;;28.60;19.80;;;;;;;;;;137803;1272;22723;-79
2024/02/19 03:57:22;;;;;;;31.60;20.50;;;;;;;;;;137762;1272;22670;-80
2024/02/19 04:00:24;;;;;;;32.70;20.50;;;;;;;;;;137802;1272;22043;-80
2024/02/19 04:03:27;;;;;;;33.50;21.60;;;;;;;;;;137784;1272;22107;-80
2024/02/19 04:06:29;;;;;;;32.70;21.00;;;;;;;;;;137763;1272;22178;-80
2024/02/19 04:09:34;;;;;;;32.10;20.20;;;;;;;;;;137762;1272;22549;-80
2024/02/19 04:12:36;;;;;;;32.70;22.00;;;;;;;;;;137706;1272;22176;-80
2024/02/19 04:15:39;;;;;;;30.10;20.70;;;;;;;;;;137782;1272;22080;-80
2024/02/19 04:18:42;;;;;;;36.70;22.40;;;;;;;;;;137816;1272;22103;-79
2024/02/19 04:21:45;;;;;;;33.10;21.40;;;;;;;;;;137776;1272;22129;-80
2024/02/19 04:24:47;;;;;;;34.40;22.30;;;;;;;;;;137769;1272;22187;-79
2024/02/19 04:27:50;;;;;;;37.60;19.00;;;;;;;;;;137764;1272;22242;-83
2024/02/19 04:30:52;;;;;;;37.20;23.50;;;;;;;;;;137766;1272;22161;-79
2024/02/19 04:33:55;;;;;;;34.20;22.10;;;;;;;;;;137752;1272;22691;-84
2024/02/19 04:36:57;;;;;;;32.10;19.80;;;;;;;;;;137684;1272;22577;-79
2024/02/19 04:40:00;;;;;;;35.20;21.90;;;;;;;;;;137732;1272;22811;-82
2024/02/19 04:43:02;;;;;;;33.50;22.10;;;;;;;;;;137722;1260;22115;-78
2024/02/19 04:46:06;;;;;;;28.80;20.20;;;;;;;;;;137738;1272;22902;-78
2024/02/19 04:49:08;;;;;;;33.80;21.80;;;;;;;;;;137723;1272;22082;-78
2024/02/19 04:52:11;;;;;;;31.60;21.30;;;;;;;;;;137747;1272;22434;-78
2024/02/19 04:55:13;;;;;;;34.20;22.30;;;;;;;;;;137709;1272;22564;-78
2024/02/19 04:58:16;;;;;;;34.10;22.80;;;;;;;;;;137704;1272;22120;-79
2024/02/19 05:01:18;;;;;;;35.10;20.70;;;;;;;;;;137701;1272;22134;-79
2024/02/19 05:04:21;;;;;;;33.60;22.30;;;;;;;;;;137701;1272;22484;-78
2024/02/19 05:07:24;;;;;;;35.10;22.30;;;;;;;;;;137731;1272;22629;-78
2024/02/19 05:10:26;;;;;;;35.00;21.40;;;;;;;;;;137707;1272;22635;-79
2024/02/19 05:13:29;;;;;;;37.10;22.10;;;;;;;;;;137674;1272;22113;-79
2024/02/19 05:16:32;;;;;;;84.50;24.10;;;;;;;;;;137773;1272;22162;-78
2024/02/19 05:19:34;;;;;;;32.10;22.50;;;;;;;;;;137746;1272;22615;-80
2024/02/19 05:22:37;;;;;;;38.10;22.20;;;;;;;;;;137774;1272;22123;-79
2024/02/19 05:25:40;;;;;;;64.60;23.10;;;;;;;;;;137752;1272;22161;-78
2024/02/19 05:28:43;;;;;;;37.20;24.20;;;;;;;;;;137727;1272;22113;-79
2024/02/19 05:31:45;;;;;;;36.60;24.20;;;;;;;;;;137730;1272;22125;-78
2024/02/19 05:34:47;;;;;;;38.20;24.10;;;;;;;;;;137741;1272;22277;-81
2024/02/19 05:37:50;;;;;;;40.00;24.10;;;;;;;;;;137797;1272;22217;-79
2024/02/19 05:40:52;;;;;;;35.10;23.80;;;;;;;;;;137714;1272;22118;-79
2024/02/19 05:43:56;;;;;;;40.20;26.10;;;;;;;;;;137685;1272;22139;-78
2024/02/19 05:46:58;;;;;;;78.90;25.60;;;;;;;;;;137668;1272;22127;-82
2024/02/19 05:50:00;;;;;;;132.00;27.40;;;;;;;;;;137717;1272;22162;-79
2024/02/19 05:53:03;;;;;;;56.30;26.40;;;;;;;;;;137675;1272;22120;-78
2024/02/19 05:56:06;;;;;;;78.90;25.40;;;;;;;;;;137663;1272;22543;-78
2024/02/19 05:59:08;;;;;;;37.00;24.30;;;;;;;;;;137676;1272;22266;-78
2024/02/19 06:02:11;;;;;;;286.70;36.80;;;;;;;;;;137710;1272;22166;-79
2024/02/19 06:05:13;;;;;;;39.10;24.80;;;;;;;;;;137768;1272;22214;-79
2024/02/19 06:08:16;;;;;;;49.00;25.40;;;;;;;;;;137769;1272;22507;-79
2024/02/19 06:11:20;;;;;;;40.20;23.10;;;;;;;;;;137763;1272;22693;-82
2024/02/19 06:14:23;;;;;;;38.80;23.60;;;;;;;;;;137699;1272;22136;-79
2024/02/19 06:17:26;;;;;;;36.50;25.10;;;;;;;;;;137645;1273;22129;-81
2024/02/19 06:20:28;;;;;;;81.80;24.90;;;;;;;;;;137626;1273;22613;-81
2024/02/19 06:23:31;;;;;;;89.50;25.40;;;;;;;;;;137656;1273;22146;-81
2024/02/19 06:26:33;;;;;;;48.00;23.80;;;;;;;;;;137641;1273;22087;-81
2024/02/19 06:29:36;;;;;;;320.00;35.30;;;;;;;;;;137619;1273;22567;-82
2024/02/19 06:32:38;;;;;;;49.70;24.60;;;;;;;;;;137659;1273;22527;-83
2024/02/19 06:35:41;;;;;;;47.80;26.50;;;;;;;;;;137647;1273;22130;-82
2024/02/19 06:38:44;;;;;;;146.30;32.50;;;;;;;;;;137602;1273;22103;-82
2024/02/19 06:41:46;;;;;;;42.60;26.00;;;;;;;;;;137632;1273;22245;-82
2024/02/19 06:44:49;;;;;;;252.10;33.40;;;;;;;;;;137658;1273;22489;-82
2024/02/19 06:47:51;;;;;;;45.00;26.20;;;;;;;;;;137692;1273;22181;-83
2024/02/19 06:50:54;;;;;;;47.50;27.10;;;;;;;;;;137667;1273;22381;-82
2024/02/19 06:53:56;;;;;;;39.90;25.40;;;;;;;;;;137653;1273;22683;-83
2024/02/19 06:56:59;;;;;;;40.60;25.90;;;;;;;;;;137637;1273;22655;-82
2024/02/19 07:00:01;;;;;;;57.60;26.70;;;;;;;;;;137614;1273;22161;-81
2024/02/19 07:03:04;;;;;;;44.30;25.90;;;;;;;;;;137653;1266;22213;-81
2024/02/19 07:06:07;;;;;;;41.40;25.10;;;;;;;;;;137631;1273;22115;-82
2024/02/19 07:09:09;;;;;;;44.60;25.80;;;;;;;;;;137569;1273;22586;-81
2024/02/19 07:12:12;;;;;;;38.50;24.80;;;;;;;;;;137671;1273;22160;-81
2024/02/19 07:15:14;;;;;;;35.70;25.00;;;;;;;;;;137606;1273;22154;-81
2024/02/19 07:18:17;;;;;;;33.40;22.20;;;;;;;;;;137686;1273;22229;-81
2024/02/19 07:21:19;;;;;;;39.50;26.30;;;;;;;;;;137673;1273;22299;-81
2024/02/19 07:24:22;;;;;;;38.40;25.20;;;;;;;;;;137638;1273;22114;-83
2024/02/19 07:27:25;;;;;;;41.20;26.00;;;;;;;;;;137617;1273;22269;-81
2024/02/19 07:30:27;;;;;;;45.10;26.50;;;;;;;;;;137596;1273;22116;-81
2024/02/19 07:33:30;;;;;;;43.30;27.50;;;;;;;;;;137649;1273;22091;-81
2024/02/19 07:36:32;;;;;;;38.00;25.90;;;;;;;;;;137656;1273;22230;-83
2024/02/19 07:39:35;;;;;;;39.60;27.10;;;;;;;;;;137637;1273;22117;-83
2024/02/19 07:42:37;;;;;;;42.70;25.80;;;;;;;;;;137639;1272;22139;-81
2024/02/19 07:45:40;;;;;;;38.20;25.90;;;;;;;;;;137645;1273;22129;-83
2024/02/19 07:48:42;;;;;;;42.50;25.60;;;;;;;;;;137693;1273;22126;-82
2024/02/19 07:51:45;;;;;;;36.30;24.20;;;;;;;;;;137640;1273;22468;-82
2024/02/19 07:54:47;;;;;;;39.50;26.60;;;;;;;;;;137634;1273;22131;-83
2024/02/19 07:57:50;;;;;;;36.70;25.60;;;;;;;;;;137593;1269;22112;-81
2024/02/19 08:00:52;;;;;;;40.50;26.30;;;;;;;;;;137657;1273;22103;-84
2024/02/19 08:03:55;;;;;;;38.60;26.70;;;;;;;;;;137656;1273;22135;-82
2024/02/19 08:06:57;;;;;;;40.30;26.70;;;;;;;;;;137638;1273;22491;-82
2024/02/19 08:10:00;;;;;;;43.40;28.20;;;;;;;;;;137590;1273;22080;-82
2024/02/19 08:13:03;;;;;;;52.00;26.90;;;;;;;;;;137655;1273;22278;-82
2024/02/19 08:16:09;;;;;;;43.90;29.60;;;;;;;;;;137669;1273;22127;-82
2024/02/19 08:19:12;;;;;;;40.50;28.40;;;;;;;;;;137654;1269;22167;-81
2024/02/19 08:22:14;;;;;;;39.70;27.50;;;;;;;;;;137740;1273;22150;-81
2024/02/19 08:25:17;;;;;;;39.30;25.90;;;;;;;;;;137726;1273;22140;-81
2024/02/19 08:28:19;;;;;;;42.30;26.10;;;;;;;;;;137692;1273;22125;-81
2024/02/19 08:31:23;;;;;;;41.60;26.20;;;;;;;;;;137660;1273;22574;-82
2024/02/19 08:34:26;;;;;;;38.50;26.10;;;;;;;;;;137627;1273;22139;-81
2024/02/19 08:37:29;;;;;;;41.60;26.60;;;;;;;;;;137642;1273;22202;-83
2024/02/19 08:40:32;;;;;;;44.30;27.70;;;;;;;;;;137631;1273;22525;-81
2024/02/19 08:43:34;;;;;;;42.40;28.30;;;;;;;;;;137641;1273;22165;-82
2024/02/19 08:46:37;;;;;;;42.40;28.30;;;;;;;;;;137621;1273;22210;-81
2024/02/19 08:49:39;;;;;;;50.90;29.40;;;;;;;;;;137582;1273;22321;-82
2024/02/19 08:52:42;;;;;;;38.80;26.60;;;;;;;;;;137611;1273;22073;-82
2024/02/19 08:55:44;;;;;;;48.30;30.60;;;;;;;;;;137615;1273;22127;-82
2024/02/19 08:58:46;;;;;;;40.80;27.90;;;;;;;;;;137655;1273;22080;-82
2024/02/19 09:01:49;;;;;;;40.80;27.10;;;;;;;;;;137635;1263;22324;-82
2024/02/19 09:04:52;;;;;;;39.20;26.50;;;;;;;;;;137585;1273;22157;-83
2024/02/19 09:07:54;;;;;;;37.80;27.20;;;;;;;;;;137483;1272;201691;-82
2024/02/19 09:10:57;;;;;;;58.20;28.30;;;;;;;;;;137596;1266;22143;-83
2024/02/19 09:14:01;;;;;;;39.50;27.50;;;;;;;;;;137575;1273;22579;-82
2024/02/19 09:17:05;;;;;;;38.70;26.40;;;;;;;;;;137547;1273;22170;-82
2024/02/19 09:20:11;;;;;;;43.70;28.40;;;;;;;;;;137594;1273;22116;-84
2024/02/19 09:23:16;;;;;;;41.60;28.10;;;;;;;;;;137620;1263;22131;-82
2024/02/19 09:26:19;;;;;;;37.00;26.50;;;;;;;;;;137548;1273;22140;-83
2024/02/19 09:29:21;;;;;;;39.00;28.30;;;;;;;;;;137631;1273;22121;-82
2024/02/19 09:32:24;;;;;;;39.80;27.00;;;;;;;;;;137647;1273;22121;-83
2024/02/19 09:35:26;;;;;;;38.90;26.60;;;;;;;;;;137633;1273;22126;-83
2024/02/19 09:38:29;;;;;;;42.00;27.60;;;;;;;;;;137672;1273;22271;-82
2024/02/19 09:41:32;;;;;;;40.80;27.70;;;;;;;;;;137638;1273;22194;-83
2024/02/19 09:44:34;;;;;;;35.60;26.20;;;;;;;;;;137599;1269;22195;-84
2024/02/19 09:47:37;;;;;;;43.10;27.50;;;;;;;;;;137591;1273;22131;-82
2024/02/19 09:50:43;;;;;;;37.50;27.50;;;;;;;;;;137351;1273;22179;-81
2024/02/19 09:53:49;;;;;;;53.20;30.40;;;;;;;;;;137611;1273;22324;-84
2024/02/19 09:56:53;;;;;;;43.60;28.70;;;;;;;;;;137611;1273;22140;-80
2024/02/19 09:59:58;;;;;;;38.90;27.60;;;;;;;;;;137630;1267;22114;-83
2024/02/19 10:03:00;;;;;;;;;;;;;;;;;;137636;1273;22734;-82
2024/02/19 10:06:03;;;;;;;38.60;26.20;;;;;;;;;;137652;1273;22119;-82
2024/02/19 10:09:11;;;;;;;41.10;27.50;;;;;;;;;;137626;1273;22741;-81
2024/02/19 10:12:21;;;;;;;38.80;27.40;;;;;;;;;;137600;1273;22111;-82
2024/02/19 10:15:23;;;;;;;41.70;27.90;;;;;;;;;;137620;1273;22157;-82
2024/02/19 10:18:26;;;;;;;43.40;27.70;;;;;;;;;;137602;1273;22119;-78
2024/02/19 10:21:28;;;;;;;40.50;27.10;;;;;;;;;;137615;1273;22208;-81
2024/02/19 10:24:31;;;;;;;40.10;27.20;;;;;;;;;;137606;1263;22599;-82
2024/02/19 10:27:36;;;;;;;42.40;28.00;;;;;;;;;;137589;1273;22120;-83
2024/02/19 10:30:39;;;;;;;42.00;28.20;;;;;;;;;;137558;1273;22166;-81
2024/02/19 10:33:44;;;;;;;43.40;29.50;;;;;;;;;;137578;1273;22108;-81
2024/02/19 10:36:47;;;;;;;;;;;;;;;;;;137636;1273;23034;-83
2024/02/19 10:39:49;;;;;;;40.70;27.70;;;;;;;;;;137602;1273;22485;-83
2024/02/19 10:42:52;;;;;;;40.60;28.10;;;;;;;;;;137604;1273;22119;-83
2024/02/19 10:45:54;;;;;;;38.80;25.70;;;;;;;;;;137582;1273;22109;-82
2024/02/19 10:48:57;;;;;;;35.20;24.30;;;;;;;;;;137633;1269;22242;-83
2024/02/19 10:51:59;;;;;;;33.10;25.40;;;;;;;;;;137595;1273;22206;-85
2024/02/19 10:55:03;;;;;;;32.80;23.80;;;;;;;;;;137666;1273;22142;-82
2024/02/19 10:58:05;;;;;;;31.30;21.40;;;;;;;;;;137672;1273;22107;-79
2024/02/19 11:01:09;;;;;;;33.60;22.40;;;;;;;;;;137623;1273;22540;-80
2024/02/19 11:04:12;;;;;;;33.60;22.00;;;;;;;;;;137666;1273;22187;-80
2024/02/19 11:07:14;;;;;;;32.10;23.80;;;;;;;;;;137632;1273;22126;-77
2024/02/19 11:10:17;;;;;;;35.50;24.20;;;;;;;;;;137665;1273;22253;-80
2024/02/19 11:13:20;;;;;;;32.50;23.80;;;;;;;;;;137637;1273;22122;-81
2024/02/19 11:16:23;;;;;;;30.80;22.70;;;;;;;;;;137581;1273;22658;-80
2024/02/19 11:19:25;;;;;;;29.70;22.50;;;;;;;;;;137616;1273;22117;-82
2024/02/19 11:22:30;;;;;;;31.50;20.90;;;;;;;;;;137576;1273;22249;-82
2024/02/19 11:25:33;;;;;;;;;;;;;;;;;;137610;1273;23176;-81
2024/02/19 11:28:35;;;;;;;29.40;22.80;;;;;;;;;;137592;1273;22143;-80
2024/02/19 11:31:39;;;;;;;29.70;24.20;;;;;;;;;;137612;1273;22841;-83
2024/02/19 11:34:42;;;;;;;31.20;23.40;;;;;;;;;;137657;1262;22132;-80
2024/02/19 11:37:44;;;;;;;32.20;25.10;;;;;;;;;;137562;1273;22110;-81
2024/02/19 11:40:47;;;;;;;34.40;23.90;;;;;;;;;;137588;1273;22607;-81
2024/02/19 11:43:49;;;;;;;34.40;23.90;;;;;;;;;;137604;1273;22152;-82
2024/02/19 11:46:52;;;;;;;30.10;23.20;;;;;;;;;;137613;1273;22165;-82
2024/02/19 11:49:54;;;;;;;29.60;23.60;;;;;;;;;;137609;1273;22120;-81
2024/02/19 11:52:58;;;;;;;33.70;24.20;;;;;;;;;;137576;1273;22149;-82
2024/02/19 11:56:00;;;;;;;31.60;24.00;;;;;;;;;;137578;1273;22209;-82
2024/02/19 11:59:03;;;;;;;30.60;24.40;;;;;;;;;;137614;1273;22232;-81
2024/02/19 12:02:05;;;;;;;38.20;25.00;;;;;;;;;;137630;1273;22165;-82
2024/02/19 12:05:08;;;;;;;30.00;23.80;;;;;;;;;;137601;1273;22200;-81
2024/02/19 12:08:10;;;;;;;30.10;23.30;;;;;;;;;;137603;1273;22137;-83
2024/02/19 12:11:13;;;;;;;30.10;23.60;;;;;;;;;;137609;1273;22117;-83
2024/02/19 12:14:17;;;;;;;33.20;24.60;;;;;;;;;;137634;1273;22185;-83
2024/02/19 12:17:22;;;;;;;28.90;23.30;;;;;;;;;;137580;1269;22728;-83
2024/02/19 12:20:24;;;;;;;31.80;24.50;;;;;;;;;;137600;1273;22297;-83
2024/02/19 12:23:26;;;;;;;29.00;23.90;;;;;;;;;;137575;1273;22117;-81
2024/02/19 12:26:29;;;;;;;34.80;23.60;;;;;;;;;;137595;1266;22691;-81
2024/02/19 12:29:31;;;;;;;29.40;21.90;;;;;;;;;;137701;1273;22190;-82
2024/02/19 12:32:34;;;;;;;30.90;23.90;;;;;;;;;;137611;1273;22118;-83
2024/02/19 12:35:37;;;;;;;31.50;25.10;;;;;;;;;;137644;1273;22113;-83
2024/02/19 12:38:42;;;;;;;30.50;25.00;;;;;;;;;;137627;1273;22621;-83
2024/02/19 12:41:46;;;;;;;32.60;25.40;;;;;;;;;;137597;1273;22161;-82
2024/02/19 12:44:49;;;;;;;32.60;25.40;;;;;;;;;;137606;1273;22118;-82
2024/02/19 12:47:52;;;;;;;30.60;24.00;;;;;;;;;;137615;1273;22188;-82
2024/02/19 12:50:54;;;;;;;36.40;25.30;;;;;;;;;;137614;1273;22418;-82
2024/02/19 12:53:57;;;;;;;34.00;26.30;;;;;;;;;;137573;1273;22131;-81
2024/02/19 12:57:00;;;;;;;31.90;24.90;;;;;;;;;;137619;1273;22132;-80
2024/02/19 13:00:06;;;;;;;36.70;27.40;;;;;;;;;;137588;1273;22112;-82
2024/02/19 13:03:09;;;;;;;31.70;26.80;;;;;;;;;;137643;1273;22121;-81
2024/02/19 13:06:14;;;;;;;31.70;24.60;;;;;;;;;;137605;1273;22937;-81
2024/02/19 13:09:16;;;;;;;34.40;26.80;;;;;;;;;;137606;1273;22165;-81
2024/02/19 13:12:19;;;;;;;37.80;28.90;;;;;;;;;;137572;1273;22120;-80
2024/02/19 13:15:22;;;;;;;36.50;28.30;;;;;;;;;;137550;1273;22124;-81
2024/02/19 13:18:25;;;;;;;32.50;25.90;;;;;;;;;;137507;1273;22314;-82
2024/02/19 13:21:27;;;;;;;36.70;28.50;;;;;;;;;;137551;1273;22394;-80
2024/02/19 13:24:30;;;;;;;38.00;28.30;;;;;;;;;;137565;1273;22150;-82
2024/02/19 13:27:33;;;;;;;37.10;28.70;;;;;;;;;;137557;1273;22119;-82
2024/02/19 13:30:35;;;;;;;35.40;28.90;;;;;;;;;;137582;1273;22085;-80
2024/02/19 13:33:38;;;;;;;35.70;28.00;;;;;;;;;;137662;1273;22296;-82
2024/02/19 13:36:40;;;;;;;35.40;28.50;;;;;;;;;;137648;1273;22085;-82
2024/02/19 13:39:43;;;;;;;31.80;26.90;;;;;;;;;;137579;1273;22118;-80
2024/02/19 13:42:46;;;;;;;42.70;32.40;;;;;;;;;;137565;1273;22142;-78
2024/02/19 13:45:48;;;;;;;50.20;37.40;;;;;;;;;;137654;1273;22100;-78
2024/02/19 13:48:51;;;;;;;54.80;42.60;;;;;;;;;;137666;1273;22659;-78
2024/02/19 13:51:53;;;;;;;50.10;39.80;;;;;;;;;;137669;1273;22418;-78
2024/02/19 13:54:56;;;;;;;49.80;35.90;;;;;;;;;;137562;1269;22076;-80
2024/02/19 13:57:58;;;;;;;64.90;43.40;;;;;;;;;;137549;1273;22127;-80
2024/02/19 14:01:04;;;;;;;60.50;43.90;;;;;;;;;;137452;1257;22089;-80
2024/02/19 14:04:06;;;;;;;60.60;39.70;;;;;;;;;;137589;1273;22216;-80
2024/02/19 14:07:10;;;;;;;51.40;38.10;;;;;;;;;;137570;1273;22263;-79
2024/02/19 14:10:13;;;;;;;55.40;38.10;;;;;;;;;;137561;1273;22123;-81
2024/02/19 14:13:15;;;;;;;51.40;37.40;;;;;;;;;;137571;1273;22059;-80
2024/02/19 14:16:18;;;;;;;47.60;35.50;;;;;;;;;;137553;1273;22082;-80
2024/02/19 14:19:21;;;;;;;32.00;24.70;;;;;;;;;;137506;1273;22662;-80
2024/02/19 14:22:24;;;;;;;29.90;20.10;;;;;;;;;;137561;1273;22158;-80
2024/02/19 14:25:26;;;;;;;19.10;13.60;;;;;;;;;;137592;1273;22123;-80
2024/02/19 14:28:29;;;;;;;17.50;13.20;;;;;;;;;;137583;1273;22170;-81
2024/02/19 14:31:31;;;;;;;26.30;13.80;;;;;;;;;;137518;1273;22152;-80
2024/02/19 14:34:34;;;;;;;22.10;12.30;;;;;;;;;;137583;1257;22148;-81
2024/02/19 14:37:38;;;;;;;14.10;9.40;;;;;;;;;;137561;1273;22124;-80
2024/02/19 14:40:41;;;;;;;;;;;;;;;;;;137571;1273;22837;-80
2024/02/19 14:43:44;;;;;;;16.50;10.40;;;;;;;;;;137609;1273;22107;-81
2024/02/19 14:46:46;;;;;;;15.20;9.40;;;;;;;;;;137621;1273;22147;-81
2024/02/19 14:49:52;;;;;;;15.40;8.80;;;;;;;;;;137569;1273;22128;-81
2024/02/19 14:52:54;;;;;;;13.60;8.90;;;;;;;;;;137604;1273;22168;-81
2024/02/19 14:55:57;;;;;;;15.60;9.40;;;;;;;;;;137625;1273;22572;-82
2024/02/19 14:58:59;;;;;;;13.50;9.90;;;;;;;;;;137652;1273;22186;-81
2024/02/19 15:02:02;;;;;;;11.50;8.20;;;;;;;;;;137682;1273;22153;-82
2024/02/19 15:05:05;;;;;;;9.50;7.40;;;;;;;;;;137685;1273;22272;-81
2024/02/19 15:08:07;;;;;;;8.20;6.30;;;;;;;;;;137653;1273;22111;-82
2024/02/19 15:11:10;;;;;;;8.80;6.40;;;;;;;;;;137627;1273;22281;-83
2024/02/19 15:14:12;;;;;;;9.00;6.80;;;;;;;;;;137619;1273;22096;-80
2024/02/19 15:17:15;;;;;;;23.50;9.80;;;;;;;;;;137649;1273;22290;-79
2024/02/19 15:20:18;;;;;;;19.20;11.10;;;;;;;;;;137636;1273;22455;-81
2024/02/19 15:23:21;;;;;;;13.40;6.40;;;;;;;;;;137651;1273;22850;-82
2024/02/19 15:26:23;;;;;;;12.90;6.00;;;;;;;;;;137627;1273;22186;-80
2024/02/19 15:29:26;;;;;;;10.50;6.00;;;;;;;;;;137609;1273;22484;-80
2024/02/19 15:32:29;;;;;;;10.10;6.50;;;;;;;;;;137609;1273;22167;-80
2024/02/19 15:35:33;;;;;;;8.50;5.90;;;;;;;;;;137639;1273;22215;-81
2024/02/19 15:38:35;;;;;;;8.20;6.00;;;;;;;;;;137655;1273;22092;-81
2024/02/19 15:41:38;;;;;;;7.70;5.60;;;;;;;;;;137693;1273;22305;-81
2024/02/19 15:44:42;;;;;;;7.00;5.10;;;;;;;;;;137615;1273;22233;-81
2024/02/19 15:47:45;;;;;;;5.80;3.70;;;;;;;;;;137644;1273;22594;-81
2024/02/19 15:50:47;;;;;;;8.50;4.40;;;;;;;;;;137671;1273;22145;-80
2024/02/19 15:53:50;;;;;;;5.20;3.90;;;;;;;;;;137678;1273;22634;-81
2024/02/19 15:56:52;;;;;;;7.50;3.90;;;;;;;;;;137675;1273;22707;-81
2024/02/19 15:59:55;;;;;;;7.20;5.00;;;;;;;;;;137636;1273;22435;-81
2024/02/19 16:02:57;;;;;;;5.00;4.20;;;;;;;;;;137639;1273;22117;-81
2024/02/19 16:06:00;;;;;;;5.80;3.70;;;;;;;;;;137635;1273;22158;-80
2024/02/19 16:09:03;;;;;;;5.90;3.90;;;;;;;;;;137647;1273;22122;-79
2024/02/19 16:12:06;;;;;;;5.80;4.00;;;;;;;;;;137612;1273;22197;-80
2024/02/19 16:15:09;;;;;;;8.30;5.20;;;;;;;;;;137670;1273;22184;-80
2024/02/19 16:18:13;;;;;;;11.90;5.80;;;;;;;;;;137650;1273;22277;-81
2024/02/19 16:21:16;;;;;;;11.80;7.30;;;;;;;;;;137630;1273;22607;-81
2024/02/19 16:24:18;;;;;;;8.20;5.80;;;;;;;;;;137641;1273;22721;-79
2024/02/19 16:27:21;;;;;;;8.80;5.50;;;;;;;;;;137625;1273;22139;-79
2024/02/19 16:30:23;;;;;;;5.80;4.50;;;;;;;;;;137684;1273;22566;-81
2024/02/19 16:33:27;;;;;;;6.40;4.30;;;;;;;;;;137658;1273;22133;-79
2024/02/19 16:36:30;;;;;;;10.10;5.60;;;;;;;;;;137635;1273;22211;-80
2024/02/19 16:39:32;;;;;;;8.40;5.90;;;;;;;;;;137662;1273;22281;-79
2024/02/19 16:42:37;;;;;;;9.90;6.40;;;;;;;;;;137635;1273;22242;-80
2024/02/19 16:45:40;;;;;;;17.90;9.70;;;;;;;;;;137707;1273;22448;-82
2024/02/19 16:48:43;;;;;;;17.50;9.10;;;;;;;;;;137645;1273;22556;-84
2024/02/19 16:51:46;;;;;;;10.80;7.80;;;;;;;;;;137688;1273;22077;-83
2024/02/19 16:54:49;;;;;;;8.20;5.50;;;;;;;;;;137643;1273;22219;-83
2024/02/19 16:57:51;;;;;;;9.60;6.40;;;;;;;;;;137647;1273;22095;-82
2024/02/19 17:00:57;;;;;;;8.50;5.10;;;;;;;;;;137631;1273;22647;-82
2024/02/19 17:04:00;;;;;;;6.30;4.60;;;;;;;;;;137681;1273;22635;-83
2024/02/19 17:07:03;;;;;;;8.70;5.70;;;;;;;;;;137680;1273;22662;-82
2024/02/19 17:10:06;;;;;;;10.30;6.50;;;;;;;;;;137661;1273;22228;-82
2024/02/19 17:13:08;;;;;;;11.90;7.00;;;;;;;;;;137650;1273;22181;-83
2024/02/19 17:16:11;;;;;;;14.30;8.50;;;;;;;;;;137560;1273;22580;-83
2024/02/19 17:19:14;;;;;;;12.60;7.20;;;;;;;;;;137645;1273;22266;-82
2024/02/19 17:22:16;;;;;;;7.00;5.60;;;;;;;;;;137631;1273;22118;-83
2024/02/19 17:25:19;;;;;;;8.60;5.50;;;;;;;;;;137670;1273;22144;-83
2024/02/19 17:28:25;;;;;;;8.00;5.80;;;;;;;;;;137649;1273;22530;-82
2024/02/19 17:31:28;;;;;;;6.40;5.10;;;;;;;;;;137588;1273;22516;-82
2024/02/19 17:34:31;;;;;;;8.10;6.80;;;;;;;;;;137679;1273;22121;-82